createdAt,value
2022-09-12T00:01:07.718Z,1009.51
2022-09-12T00:06:22.759Z,1009.453
2022-09-12T00:11:32.318Z,1009.357
2022-09-12T00:16:44.619Z,1009.371
2022-09-12T00:21:56.811Z,1009.404
2022-09-12T00:27:09.281Z,1009.414
2022-09-12T00:32:21.468Z,1009.441
2022-09-12T00:37:33.791Z,1009.452
2022-09-12T00:42:45.925Z,1009.401
2022-09-12T00:47:58.139Z,1009.399
2022-09-12T00:53:10.460Z,1009.33
2022-09-12T00:58:22.926Z,1009.324
2022-09-12T01:03:35.119Z,1009.344
2022-09-12T01:08:47.446Z,1009.353
2022-09-12T01:13:59.780Z,1009.323
2022-09-12T01:19:12.073Z,1009.239
2022-09-12T01:24:24.617Z,1009.367
2022-09-12T01:29:36.870Z,1009.325
2022-09-12T01:34:49.154Z,1009.334
2022-09-12T01:40:01.520Z,1009.325
2022-09-12T01:45:14.292Z,1009.278
2022-09-12T01:50:26.520Z,1009.244
2022-09-12T01:55:38.661Z,1009.226
2022-09-12T02:00:50.958Z,1009.185
2022-09-12T02:06:03.404Z,1009.199
2022-09-12T02:11:15.813Z,1009.204
2022-09-12T02:16:28.605Z,1009.226
2022-09-12T02:21:40.788Z,1009.245
2022-09-12T02:26:53.095Z,1009.203
2022-09-12T02:32:05.603Z,1009.133
2022-09-12T02:37:17.936Z,1009.128
2022-09-12T02:42:30.330Z,1009.139
2022-09-12T02:47:42.716Z,1009.115
2022-09-12T02:52:55.019Z,1009.149
2022-09-12T02:58:07.251Z,1009.185
2022-09-12T03:03:19.714Z,1009.203
2022-09-12T03:08:31.973Z,1009.194
2022-09-12T03:13:44.428Z,1009.181
2022-09-12T03:18:56.559Z,1009.177
2022-09-12T03:24:09.077Z,1009.083
2022-09-12T03:29:21.398Z,1009.11
2022-09-12T03:34:33.755Z,1009.141
2022-09-12T03:39:46.110Z,1009.17
2022-09-12T03:44:58.557Z,1009.111
2022-09-12T03:50:10.885Z,1009.222
2022-09-12T03:55:23.218Z,1009.214
2022-09-12T04:00:35.644Z,1009.276
2022-09-12T04:05:48.211Z,1009.366
2022-09-12T04:11:00.500Z,1009.295
2022-09-12T04:16:12.782Z,1009.297
2022-09-12T04:21:25.171Z,1009.268
2022-09-12T04:26:37.251Z,1009.184
2022-09-12T04:31:49.883Z,1009.258
2022-09-12T04:37:02.119Z,1009.327
2022-09-12T04:42:14.537Z,1009.264
2022-09-12T04:47:26.723Z,1009.222
2022-09-12T04:52:38.879Z,1009.189
2022-09-12T04:57:51.293Z,1009.196
2022-09-12T05:03:03.527Z,1009.186
2022-09-12T05:08:15.861Z,1009.206
2022-09-12T05:13:28.126Z,1009.223
2022-09-12T05:18:40.582Z,1009.245
2022-09-12T05:23:52.959Z,1009.301
2022-09-12T05:29:05.198Z,1009.307
2022-09-12T05:34:17.445Z,1009.337
2022-09-12T05:39:29.904Z,1009.379
2022-09-12T05:44:42.600Z,1009.419
2022-09-12T05:49:54.938Z,1009.431
2022-09-12T05:55:07.200Z,1009.444
2022-09-12T06:00:19.682Z,1009.494
2022-09-12T06:05:31.977Z,1009.524
2022-09-12T06:10:44.568Z,1009.599
2022-09-12T06:15:56.764Z,1009.686
2022-09-12T06:21:09.181Z,1009.727
2022-09-12T06:26:21.687Z,1009.788
2022-09-12T06:31:33.934Z,1009.797
2022-09-12T06:36:46.228Z,1009.86
2022-09-12T06:41:58.698Z,1009.82
2022-09-12T06:47:10.872Z,1009.838
2022-09-12T06:52:23.444Z,1009.838
2022-09-12T06:57:35.788Z,1009.845
2022-09-12T07:02:48.306Z,1009.769
2022-09-12T07:08:00.731Z,1009.731
2022-09-12T07:13:12.970Z,1009.74
2022-09-12T07:18:25.365Z,1009.731
2022-09-12T07:23:37.781Z,1009.759
2022-09-12T07:28:50.346Z,1009.81
2022-09-12T07:34:02.544Z,1009.815
2022-09-12T07:44:27.171Z,1009.817
2022-09-12T07:49:42.763Z,1009.769
2022-09-12T07:54:54.996Z,1009.832
2022-09-12T08:00:07.342Z,1009.808
2022-09-12T08:05:19.636Z,1009.826
2022-09-12T08:10:32.039Z,1009.904
2022-09-12T08:15:44.606Z,1009.881
2022-09-12T08:20:56.937Z,1009.924
2022-09-12T08:26:09.219Z,1009.943
2022-09-12T08:31:21.803Z,1009.93
2022-09-12T08:36:34.425Z,1009.886
2022-09-12T08:41:46.879Z,1009.93
2022-09-12T08:46:59.171Z,1009.958
2022-09-12T08:52:11.440Z,1009.873
2022-09-12T08:57:23.911Z,1009.84
2022-09-12T09:02:36.443Z,1009.866
2022-09-12T09:07:48.616Z,1009.895
2022-09-12T09:13:01.008Z,1009.917
2022-09-12T09:18:13.527Z,1009.852
2022-09-12T09:23:25.810Z,1009.831
2022-09-12T09:28:38.141Z,1009.835
2022-09-12T09:33:50.483Z,1009.781
2022-09-12T09:39:02.993Z,1009.786
2022-09-12T09:44:15.335Z,1009.783
2022-09-12T09:49:27.841Z,1009.823
2022-09-12T09:54:40.193Z,1009.789
2022-09-12T09:59:52.791Z,1009.746
2022-09-12T10:05:05.370Z,1009.666
2022-09-12T10:10:18.084Z,1009.647
2022-09-12T10:15:30.575Z,1009.701
2022-09-12T10:20:42.975Z,1009.683
2022-09-12T10:25:55.543Z,1009.652
2022-09-12T10:31:07.811Z,1009.662
2022-09-12T10:36:20.225Z,1009.698
2022-09-12T10:41:32.429Z,1009.661
2022-09-12T10:46:44.754Z,1009.652
2022-09-12T10:51:57.318Z,1009.633
2022-09-12T10:57:09.733Z,1009.705
2022-09-12T11:02:22.554Z,1009.611
2022-09-12T11:07:34.972Z,1009.556
2022-09-12T11:12:47.295Z,1009.571
2022-09-12T11:17:59.709Z,1009.548
2022-09-12T11:23:11.879Z,1009.55
2022-09-12T11:28:24.240Z,1009.475
2022-09-12T11:33:40.949Z,1009.527
2022-09-12T11:38:49.517Z,1009.54
2022-09-12T11:44:01.805Z,1009.469
2022-09-12T11:49:14.139Z,1009.467
2022-09-12T11:54:26.541Z,1009.458
2022-09-12T11:59:38.793Z,1009.433
2022-09-12T12:04:51.440Z,1009.37
2022-09-12T12:10:03.784Z,1009.33
2022-09-12T12:15:16.172Z,1009.296
2022-09-12T12:20:28.426Z,1009.169
2022-09-12T12:25:41.333Z,1009.223
2022-09-12T12:30:53.702Z,1009.156
2022-09-12T12:36:06.188Z,1009.192
2022-09-12T12:41:18.736Z,1009.231
2022-09-12T12:46:31.184Z,1009.222
2022-09-12T12:51:43.485Z,1009.139
2022-09-12T12:56:55.714Z,1009.058
2022-09-12T13:02:08.487Z,1009.107
2022-09-12T13:07:20.773Z,1009.09
2022-09-12T13:12:33.205Z,1009.017
2022-09-12T13:17:45.504Z,1009.03
2022-09-12T13:22:58.348Z,1008.919
2022-09-12T13:28:10.705Z,1008.904
2022-09-12T13:33:23.110Z,1008.906
2022-09-12T13:38:35.563Z,1008.784
2022-09-12T13:43:47.755Z,1008.76
2022-09-12T13:49:00.261Z,1008.658
2022-09-12T13:54:12.614Z,1008.617
2022-09-12T13:59:24.738Z,1008.539
2022-09-12T14:04:37.238Z,1008.565
2022-09-12T14:09:49.574Z,1008.479
2022-09-12T14:15:02.040Z,1008.507
2022-09-12T14:20:14.446Z,1008.594
2022-09-12T14:25:26.532Z,1008.444
2022-09-12T14:30:38.953Z,1008.381
2022-09-12T14:35:51.042Z,1008.403
2022-09-12T14:41:03.246Z,1008.338
2022-09-12T14:46:15.892Z,1008.252
2022-09-12T14:51:28.131Z,1008.216
2022-09-12T14:56:40.322Z,1008.198
2022-09-12T15:01:52.721Z,1008.173
2022-09-12T15:07:04.999Z,1008.075
2022-09-12T15:12:17.409Z,1008.031
2022-09-12T15:17:29.656Z,1008.022
2022-09-12T15:22:42.091Z,1008.027
2022-09-12T15:27:54.489Z,1008.008
2022-09-12T15:33:07.081Z,1007.943
2022-09-12T15:38:22.001Z,1007.919
2022-09-12T15:43:31.767Z,1007.885
2022-09-12T15:48:44.137Z,1007.801
2022-09-12T15:53:56.429Z,1007.852
2022-09-12T15:59:08.649Z,1007.786
2022-09-12T16:04:20.988Z,1007.829
2022-09-12T16:09:33.087Z,1007.72
2022-09-12T16:14:45.306Z,1007.732
2022-09-12T16:19:57.665Z,1007.706
2022-09-12T16:25:09.863Z,1007.655
2022-09-12T16:30:22.270Z,1007.583
2022-09-12T16:35:34.714Z,1007.51
2022-09-12T16:40:47.104Z,1007.468
2022-09-12T16:45:59.716Z,1007.505
2022-09-12T16:51:11.924Z,1007.425
2022-09-12T17:02:52.148Z,1007.316
2022-09-12T17:08:04.283Z,1007.25
2022-09-12T17:13:16.627Z,1007.216
2022-09-12T17:18:28.890Z,1007.203
2022-09-12T17:23:41.503Z,1007.11
2022-09-12T17:28:53.905Z,1007.154
2022-09-12T17:34:06.192Z,1007.124
2022-09-12T17:39:18.477Z,1007.116
2022-09-12T17:44:30.844Z,1007.122
2022-09-12T17:49:43.285Z,1007.169
2022-09-12T17:54:55.667Z,1007.168
2022-09-12T18:00:08.372Z,1007.22
2022-09-12T18:05:20.788Z,1007.247
2022-09-12T18:10:33.169Z,1007.32
2022-09-12T18:15:45.953Z,1007.245
2022-09-12T18:20:58.274Z,1007.203
2022-09-12T18:26:10.561Z,1007.14
2022-09-12T18:31:22.885Z,1007.085
2022-09-12T18:36:35.249Z,1007.116
2022-09-12T18:41:47.798Z,1007.1
2022-09-12T18:46:59.999Z,1007.096
2022-09-12T18:52:12.425Z,1007.049
2022-09-12T18:57:24.848Z,1007.011
2022-09-12T19:02:37.386Z,1006.922
2022-09-12T19:07:49.706Z,1006.848
2022-09-12T19:13:02.150Z,1006.758
2022-09-12T19:18:14.344Z,1006.758
2022-09-12T19:23:26.739Z,1006.762
2022-09-12T19:28:39.138Z,1006.734
2022-09-12T19:33:51.172Z,1006.671
2022-09-12T19:39:03.711Z,1006.647
2022-09-12T19:44:16.060Z,1006.643
2022-09-12T19:49:28.287Z,1006.651
2022-09-12T19:54:40.560Z,1006.605
2022-09-12T19:59:52.889Z,1006.556
2022-09-12T20:05:05.083Z,1006.495
2022-09-12T20:10:17.675Z,1006.464
2022-09-12T20:15:29.913Z,1006.383
2022-09-12T20:20:42.209Z,1006.436
2022-09-12T20:25:54.536Z,1006.437
2022-09-12T20:31:06.785Z,1006.375
2022-09-12T20:36:19.071Z,1006.318
2022-09-12T20:41:31.374Z,1006.302
2022-09-12T20:46:43.672Z,1006.358
2022-09-12T20:51:55.985Z,1006.322
2022-09-12T20:57:08.390Z,1006.239
2022-09-12T21:02:20.895Z,1006.159
2022-09-12T21:07:33.070Z,1006.205
2022-09-12T21:12:45.425Z,1006.196
2022-09-12T21:17:57.796Z,1006.194
2022-09-12T21:23:10.214Z,1006.15
2022-09-12T21:28:22.620Z,1006.147
2022-09-12T21:33:35.147Z,1006.06
2022-09-12T21:38:47.407Z,1005.986
2022-09-12T21:43:59.901Z,1006.018
2022-09-12T21:49:12.150Z,1006.035
2022-09-12T21:54:24.589Z,1005.918
2022-09-12T21:59:36.786Z,1005.876
2022-09-12T22:04:49.209Z,1005.808
2022-09-12T22:10:01.430Z,1005.783
2022-09-12T22:15:38.688Z,1005.674
2022-09-12T22:20:25.997Z,1005.585
2022-09-12T22:25:38.531Z,1005.508
2022-09-12T22:30:50.819Z,1005.485
2022-09-12T22:36:03.082Z,1005.476
2022-09-12T22:41:15.273Z,1005.319
2022-09-12T22:46:27.883Z,1005.247
2022-09-12T22:51:40.243Z,1005.129
2022-09-12T22:56:52.630Z,1005.047
2022-09-12T23:02:04.801Z,1004.967
2022-09-12T23:07:17.385Z,1004.953
2022-09-12T23:12:29.702Z,1004.943
2022-09-12T23:17:42.156Z,1004.882
2022-09-12T23:22:54.581Z,1004.89
2022-09-12T23:28:06.933Z,1004.892
2022-09-12T23:33:19.204Z,1004.836
2022-09-12T23:38:31.444Z,1004.753
2022-09-12T23:43:43.752Z,1004.743
2022-09-12T23:48:56.076Z,1004.725
2022-09-12T23:54:08.939Z,1004.689
2022-09-12T23:59:21.245Z,1004.595
